Estación Meteorológica Peña el Pijo (Robertgarden) [ 11/24/17 15:37:40 CET ]

Fecha Hora Presion(HPa) Temp (°C) Humedad % Rocio (°C) Viento ( m/s) Direccion Lluvia 1Hora(mm) Lluvia 24H(mm) LLuvia Total(mm)
2017-May-18 01:01:42 1009.500 10.4 62 3.4         1390.83
2017-May-18 02:01:38 1009.000 10.2 62 3.2         1390.83
2017-May-18 03:05:13 1008.100 9.0 67 3.2         1390.83
2017-May-18 04:01:36 1007.600 8.4 69 3.0         1390.83
2017-May-18 05:01:56 1007.100 8.9 70 3.7         1390.83
2017-May-18 06:01:50 1006.700 9.3 70 4.1         1390.83
2017-May-18 07:01:51 1006.400 8.9 71 3.9         1390.83
2017-May-18 08:01:37 1006.100 11.9 74 7.4         1390.83
2017-May-18 09:01:48 1005.900 16.0 64 9.2         1390.83
2017-May-18 10:01:52 1005.900 19.8 52 9.7         1390.83
2017-May-18 11:01:58 1005.800 23.6 40 9.2 1.9 N     1390.83
2017-May-18 12:01:36 1005.500 25.3 35 8.6         1390.83
2017-May-18 13:01:51 1006.000 24.3 40 9.9         1390.83
2017-May-18 14:01:47 1005.600 24.1 38 8.8 2.4 NNW     1390.83
2017-May-18 15:01:51 1005.600 24.5 32 6.7         1390.83
2017-May-18 16:01:48 1005.500 24.7 31 6.4         1390.83
2017-May-18 17:01:47 1005.600 25.4 29 6.0 2.3 W     1390.83
2017-May-18 18:01:43 1006.100 24.7 29 5.4         1390.83
2017-May-18 19:01:53 1006.600 23.3 30 4.8 1.9 WSW     1390.83
2017-May-18 20:01:58 1007.200 21.3 26 0.8         1390.83
2017-May-18 21:01:39 1008.000 17.5 31 0.2         1390.83
2017-May-18 22:01:41 1008.800 15.0 37 0.3         1390.83
2017-May-18 23:01:59 1009.800 11.6 47 0.6         1390.83

Temperatura Máxima:25°    Temperatura Mínima:
Presión Máxima:1009.800 Hpa    Presión Mínima:1005.500 Hpa


Volver